sensor_id;sensor_type;location;lat;lon;timestamp;P1;durP1;ratioP1;P2;durP2;ratioP2
49812;SDS011;35706;52.100;5.056;2023-04-07T00:00:06;12.77;;;2.03;;
49812;SDS011;35706;52.100;5.056;2023-04-07T00:01:07;14.00;;;1.83;;
49812;SDS011;35706;52.100;5.056;2023-04-07T00:02:07;6.97;;;1.63;;
49812;SDS011;35706;52.100;5.056;2023-04-07T00:03:08;14.77;;;1.65;;
49812;SDS011;35706;52.100;5.056;2023-04-07T00:04:08;7.03;;;1.60;;
49812;SDS011;35706;52.100;5.056;2023-04-07T00:05:08;12.75;;;2.08;;
49812;SDS011;35706;52.100;5.056;2023-04-07T00:06:09;7.53;;;1.42;;
49812;SDS011;35706;52.100;5.056;2023-04-07T00:07:09;11.43;;;1.80;;
49812;SDS011;35706;52.100;5.056;2023-04-07T00:08:10;5.65;;;1.58;;
49812;SDS011;35706;52.100;5.056;2023-04-07T00:09:10;14.25;;;2.25;;
49812;SDS011;35706;52.100;5.056;2023-04-07T00:10:11;12.15;;;2.53;;
49812;SDS011;35706;52.100;5.056;2023-04-07T00:11:11;10.43;;;2.30;;
49812;SDS011;35706;52.100;5.056;2023-04-07T00:12:12;9.27;;;1.88;;
49812;SDS011;35706;52.100;5.056;2023-04-07T00:13:12;5.13;;;2.13;;
49812;SDS011;35706;52.100;5.056;2023-04-07T00:14:12;12.75;;;2.22;;
49812;SDS011;35706;52.100;5.056;2023-04-07T00:15:13;11.18;;;2.20;;
49812;SDS011;35706;52.100;5.056;2023-04-07T00:16:13;12.32;;;2.20;;
49812;SDS011;35706;52.100;5.056;2023-04-07T00:17:13;8.73;;;2.20;;
49812;SDS011;35706;52.100;5.056;2023-04-07T00:18:14;11.38;;;2.47;;
49812;SDS011;35706;52.100;5.056;2023-04-07T00:19:14;8.57;;;2.00;;
49812;SDS011;35706;52.100;5.056;2023-04-07T00:20:15;5.25;;;1.77;;
49812;SDS011;35706;52.100;5.056;2023-04-07T00:21:16;12.02;;;2.58;;
49812;SDS011;35706;52.100;5.056;2023-04-07T00:22:16;11.45;;;2.78;;
49812;SDS011;35706;52.100;5.056;2023-04-07T00:23:17;9.68;;;2.83;;
49812;SDS011;35706;52.100;5.056;2023-04-07T00:24:17;5.03;;;2.58;;
49812;SDS011;35706;52.100;5.056;2023-04-07T00:25:17;9.05;;;3.10;;
49812;SDS011;35706;52.100;5.056;2023-04-07T00:26:18;6.32;;;2.25;;
49812;SDS011;35706;52.100;5.056;2023-04-07T00:27:18;9.32;;;2.17;;
49812;SDS011;35706;52.100;5.056;2023-04-07T00:28:18;6.72;;;2.22;;
49812;SDS011;35706;52.100;5.056;2023-04-07T00:29:19;7.53;;;2.10;;
49812;SDS011;35706;52.100;5.056;2023-04-07T00:30:19;10.13;;;2.65;;
49812;SDS011;35706;52.100;5.056;2023-04-07T00:31:19;9.20;;;2.20;;
49812;SDS011;35706;52.100;5.056;2023-04-07T00:32:20;5.70;;;2.25;;
49812;SDS011;35706;52.100;5.056;2023-04-07T00:33:21;7.60;;;2.40;;
49812;SDS011;35706;52.100;5.056;2023-04-07T00:34:21;10.13;;;2.65;;
49812;SDS011;35706;52.100;5.056;2023-04-07T00:35:22;6.38;;;2.05;;
49812;SDS011;35706;52.100;5.056;2023-04-07T00:36:22;10.65;;;2.45;;
49812;SDS011;35706;52.100;5.056;2023-04-07T00:37:22;9.38;;;1.92;;
49812;SDS011;35706;52.100;5.056;2023-04-07T00:38:24;7.25;;;1.85;;
49812;SDS011;35706;52.100;5.056;2023-04-07T00:39:25;12.98;;;2.72;;
49812;SDS011;35706;52.100;5.056;2023-04-07T00:40:26;7.43;;;2.28;;
49812;SDS011;35706;52.100;5.056;2023-04-07T00:41:26;8.88;;;2.55;;
49812;SDS011;35706;52.100;5.056;2023-04-07T00:42:27;7.90;;;2.33;;
49812;SDS011;35706;52.100;5.056;2023-04-07T00:43:27;10.20;;;2.75;;
49812;SDS011;35706;52.100;5.056;2023-04-07T00:44:27;13.98;;;2.95;;
49812;SDS011;35706;52.100;5.056;2023-04-07T00:45:28;11.00;;;2.75;;
49812;SDS011;35706;52.100;5.056;2023-04-07T00:46:28;14.80;;;2.97;;
49812;SDS011;35706;52.100;5.056;2023-04-07T00:47:28;8.40;;;2.67;;
49812;SDS011;35706;52.100;5.056;2023-04-07T00:48:29;9.48;;;3.10;;
49812;SDS011;35706;52.100;5.056;2023-04-07T00:49:30;9.63;;;3.10;;
49812;SDS011;35706;52.100;5.056;2023-04-07T00:50:31;15.07;;;3.60;;
49812;SDS011;35706;52.100;5.056;2023-04-07T00:51:31;11.63;;;3.78;;
49812;SDS011;35706;52.100;5.056;2023-04-07T00:52:31;11.15;;;3.70;;
49812;SDS011;35706;52.100;5.056;2023-04-07T00:53:32;11.75;;;4.00;;
49812;SDS011;35706;52.100;5.056;2023-04-07T00:54:33;9.80;;;3.60;;
49812;SDS011;35706;52.100;5.056;2023-04-07T00:55:33;9.68;;;3.45;;
49812;SDS011;35706;52.100;5.056;2023-04-07T00:56:33;16.15;;;5.35;;
49812;SDS011;35706;52.100;5.056;2023-04-07T00:57:34;12.77;;;3.85;;
49812;SDS011;35706;52.100;5.056;2023-04-07T00:58:34;13.00;;;3.88;;
49812;SDS011;35706;52.100;5.056;2023-04-07T00:59:35;13.32;;;4.05;;
49812;SDS011;35706;52.100;5.056;2023-04-07T01:00:37;13.60;;;4.65;;
49812;SDS011;35706;52.100;5.056;2023-04-07T01:01:47;14.68;;;3.60;;
49812;SDS011;35706;52.100;5.056;2023-04-07T01:03:00;15.48;;;3.08;;
49812;SDS011;35706;52.100;5.056;2023-04-07T01:04:08;15.95;;;3.55;;
49812;SDS011;35706;52.100;5.056;2023-04-07T01:06:15;10.48;;;3.20;;
49812;SDS011;35706;52.100;5.056;2023-04-07T01:07:23;12.57;;;2.58;;
49812;SDS011;35706;52.100;5.056;2023-04-07T01:08:32;10.77;;;2.63;;
49812;SDS011;35706;52.100;5.056;2023-04-07T01:09:41;11.68;;;2.88;;
49812;SDS011;35706;52.100;5.056;2023-04-07T01:10:58;8.88;;;2.53;;
49812;SDS011;35706;52.100;5.056;2023-04-07T01:13:37;10.25;;;2.83;;
49812;SDS011;35706;52.100;5.056;2023-04-07T01:14:44;11.15;;;2.30;;
49812;SDS011;35706;52.100;5.056;2023-04-07T01:15:50;9.50;;;2.35;;
49812;SDS011;35706;52.100;5.056;2023-04-07T01:16:55;16.10;;;3.00;;
49812;SDS011;35706;52.100;5.056;2023-04-07T01:18:12;12.20;;;2.20;;
49812;SDS011;35706;52.100;5.056;2023-04-07T01:20:38;10.48;;;2.45;;
49812;SDS011;35706;52.100;5.056;2023-04-07T01:21:39;9.95;;;2.33;;
49812;SDS011;35706;52.100;5.056;2023-04-07T01:22:46;8.65;;;2.97;;
49812;SDS011;35706;52.100;5.056;2023-04-07T01:27:35;9.43;;;2.17;;
49812;SDS011;35706;52.100;5.056;2023-04-07T01:30:27;14.68;;;2.10;;
49812;SDS011;35706;52.100;5.056;2023-04-07T01:31:30;10.65;;;2.13;;
49812;SDS011;35706;52.100;5.056;2023-04-07T01:32:31;18.65;;;2.80;;
49812;SDS011;35706;52.100;5.056;2023-04-07T01:33:35;10.43;;;2.40;;
49812;SDS011;35706;52.100;5.056;2023-04-07T01:34:37;8.20;;;2.53;;
49812;SDS011;35706;52.100;5.056;2023-04-07T01:35:40;14.38;;;2.15;;
49812;SDS011;35706;52.100;5.056;2023-04-07T01:36:42;18.40;;;2.75;;
49812;SDS011;35706;52.100;5.056;2023-04-07T01:37:44;13.98;;;1.80;;
49812;SDS011;35706;52.100;5.056;2023-04-07T01:38:47;15.27;;;2.65;;
49812;SDS011;35706;52.100;5.056;2023-04-07T01:39:49;13.10;;;2.67;;
49812;SDS011;35706;52.100;5.056;2023-04-07T01:40:50;13.40;;;2.63;;
49812;SDS011;35706;52.100;5.056;2023-04-07T01:41:52;11.15;;;1.98;;
49812;SDS011;35706;52.100;5.056;2023-04-07T01:42:53;6.05;;;2.20;;
49812;SDS011;35706;52.100;5.056;2023-04-07T01:43:56;13.05;;;2.60;;
49812;SDS011;35706;52.100;5.056;2023-04-07T01:44:58;8.73;;;1.85;;
49812;SDS011;35706;52.100;5.056;2023-04-07T01:46:00;15.30;;;2.05;;
49812;SDS011;35706;52.100;5.056;2023-04-07T01:47:02;12.95;;;1.98;;
49812;SDS011;35706;52.100;5.056;2023-04-07T01:48:06;10.32;;;1.98;;
49812;SDS011;35706;52.100;5.056;2023-04-07T01:49:07;11.32;;;2.20;;
49812;SDS011;35706;52.100;5.056;2023-04-07T01:50:08;15.45;;;1.73;;
49812;SDS011;35706;52.100;5.056;2023-04-07T01:51:10;11.43;;;2.38;;
49812;SDS011;35706;52.100;5.056;2023-04-07T01:52:16;12.38;;;1.40;;
49812;SDS011;35706;52.100;5.056;2023-04-07T01:53:16;10.45;;;1.83;;
49812;SDS011;35706;52.100;5.056;2023-04-07T01:54:18;14.80;;;1.40;;
49812;SDS011;35706;52.100;5.056;2023-04-07T01:55:20;7.50;;;1.65;;
49812;SDS011;35706;52.100;5.056;2023-04-07T01:56:21;16.83;;;1.48;;
49812;SDS011;35706;52.100;5.056;2023-04-07T01:57:21;15.20;;;1.40;;
49812;SDS011;35706;52.100;5.056;2023-04-07T01:58:21;9.43;;;1.13;;
49812;SDS011;35706;52.100;5.056;2023-04-07T01:59:22;9.23;;;1.65;;
49812;SDS011;35706;52.100;5.056;2023-04-07T02:00:22;7.43;;;1.13;;
49812;SDS011;35706;52.100;5.056;2023-04-07T02:01:22;12.80;;;1.30;;
49812;SDS011;35706;52.100;5.056;2023-04-07T02:02:23;10.02;;;1.40;;
49812;SDS011;35706;52.100;5.056;2023-04-07T02:03:26;8.52;;;1.23;;
49812;SDS011;35706;52.100;5.056;2023-04-07T02:04:51;9.90;;;1.30;;
49812;SDS011;35706;52.100;5.056;2023-04-07T02:05:56;9.13;;;1.00;;
49812;SDS011;35706;52.100;5.056;2023-04-07T02:07:05;5.88;;;0.90;;
49812;SDS011;35706;52.100;5.056;2023-04-07T02:08:10;11.13;;;1.00;;
49812;SDS011;35706;52.100;5.056;2023-04-07T02:09:12;16.88;;;1.00;;
49812;SDS011;35706;52.100;5.056;2023-04-07T02:10:15;11.50;;;1.83;;
49812;SDS011;35706;52.100;5.056;2023-04-07T02:11:19;13.50;;;1.02;;
49812;SDS011;35706;52.100;5.056;2023-04-07T02:12:21;15.95;;;1.38;;
49812;SDS011;35706;52.100;5.056;2023-04-07T02:13:25;6.85;;;0.90;;
49812;SDS011;35706;52.100;5.056;2023-04-07T02:14:27;10.45;;;1.05;;
49812;SDS011;35706;52.100;5.056;2023-04-07T02:15:28;10.35;;;0.90;;
49812;SDS011;35706;52.100;5.056;2023-04-07T02:16:30;12.85;;;0.82;;
49812;SDS011;35706;52.100;5.056;2023-04-07T02:17:31;8.80;;;0.90;;
49812;SDS011;35706;52.100;5.056;2023-04-07T02:18:34;10.45;;;0.80;;
49812;SDS011;35706;52.100;5.056;2023-04-07T02:19:36;11.05;;;0.85;;
49812;SDS011;35706;52.100;5.056;2023-04-07T02:20:37;14.20;;;0.90;;
49812;SDS011;35706;52.100;5.056;2023-04-07T02:21:40;12.13;;;1.05;;
49812;SDS011;35706;52.100;5.056;2023-04-07T02:22:41;11.88;;;0.88;;
49812;SDS011;35706;52.100;5.056;2023-04-07T02:23:43;14.65;;;0.90;;
49812;SDS011;35706;52.100;5.056;2023-04-07T02:24:44;8.98;;;0.80;;
49812;SDS011;35706;52.100;5.056;2023-04-07T02:25:44;13.40;;;1.00;;
49812;SDS011;35706;52.100;5.056;2023-04-07T02:26:45;9.48;;;0.80;;
49812;SDS011;35706;52.100;5.056;2023-04-07T02:27:46;17.30;;;1.08;;
49812;SDS011;35706;52.100;5.056;2023-04-07T02:28:47;21.15;;;1.10;;
49812;SDS011;35706;52.100;5.056;2023-04-07T02:29:47;16.05;;;1.13;;
49812;SDS011;35706;52.100;5.056;2023-04-07T02:30:47;8.50;;;0.80;;
49812;SDS011;35706;52.100;5.056;2023-04-07T02:31:47;10.27;;;0.73;;
49812;SDS011;35706;52.100;5.056;2023-04-07T02:32:48;8.00;;;0.80;;
49812;SDS011;35706;52.100;5.056;2023-04-07T02:33:48;9.52;;;1.00;;
49812;SDS011;35706;52.100;5.056;2023-04-07T02:34:48;10.00;;;0.73;;
49812;SDS011;35706;52.100;5.056;2023-04-07T02:35:49;24.08;;;1.88;;
49812;SDS011;35706;52.100;5.056;2023-04-07T02:36:49;13.20;;;1.00;;
49812;SDS011;35706;52.100;5.056;2023-04-07T02:37:50;14.90;;;1.05;;
49812;SDS011;35706;52.100;5.056;2023-04-07T02:38:50;9.10;;;0.75;;
49812;SDS011;35706;52.100;5.056;2023-04-07T02:39:50;14.70;;;1.10;;
49812;SDS011;35706;52.100;5.056;2023-04-07T02:40:51;13.18;;;1.08;;
49812;SDS011;35706;52.100;5.056;2023-04-07T02:41:51;14.70;;;1.00;;
49812;SDS011;35706;52.100;5.056;2023-04-07T02:42:51;20.15;;;1.30;;
49812;SDS011;35706;52.100;5.056;2023-04-07T02:43:52;10.82;;;1.05;;
49812;SDS011;35706;52.100;5.056;2023-04-07T02:44:52;14.05;;;1.15;;
49812;SDS011;35706;52.100;5.056;2023-04-07T02:45:52;15.52;;;1.40;;
49812;SDS011;35706;52.100;5.056;2023-04-07T02:46:53;12.88;;;0.90;;
49812;SDS011;35706;52.100;5.056;2023-04-07T02:47:54;9.00;;;1.10;;
49812;SDS011;35706;52.100;5.056;2023-04-07T02:48:54;13.75;;;1.00;;
49812;SDS011;35706;52.100;5.056;2023-04-07T02:49:54;6.63;;;1.00;;
49812;SDS011;35706;52.100;5.056;2023-04-07T02:50:55;9.18;;;0.80;;
49812;SDS011;35706;52.100;5.056;2023-04-07T02:51:55;14.75;;;0.90;;
49812;SDS011;35706;52.100;5.056;2023-04-07T02:52:56;16.83;;;1.05;;
49812;SDS011;35706;52.100;5.056;2023-04-07T02:53:56;20.65;;;1.40;;
49812;SDS011;35706;52.100;5.056;2023-04-07T02:54:56;14.63;;;1.00;;
49812;SDS011;35706;52.100;5.056;2023-04-07T02:55:57;12.20;;;1.13;;
49812;SDS011;35706;52.100;5.056;2023-04-07T02:56:57;14.82;;;0.90;;
49812;SDS011;35706;52.100;5.056;2023-04-07T02:57:58;11.00;;;1.13;;
49812;SDS011;35706;52.100;5.056;2023-04-07T02:58:58;7.57;;;0.93;;
49812;SDS011;35706;52.100;5.056;2023-04-07T02:59:58;6.57;;;0.93;;
49812;SDS011;35706;52.100;5.056;2023-04-07T03:00:58;15.57;;;1.35;;
49812;SDS011;35706;52.100;5.056;2023-04-07T03:01:59;10.25;;;1.08;;
49812;SDS011;35706;52.100;5.056;2023-04-07T03:02:59;11.55;;;0.90;;
49812;SDS011;35706;52.100;5.056;2023-04-07T03:04:00;16.10;;;1.00;;
49812;SDS011;35706;52.100;5.056;2023-04-07T03:05:00;18.40;;;1.38;;
49812;SDS011;35706;52.100;5.056;2023-04-07T03:06:03;12.30;;;0.90;;
49812;SDS011;35706;52.100;5.056;2023-04-07T03:07:03;10.13;;;0.98;;
49812;SDS011;35706;52.100;5.056;2023-04-07T03:08:04;11.80;;;1.13;;
49812;SDS011;35706;52.100;5.056;2023-04-07T03:09:07;14.73;;;1.13;;
49812;SDS011;35706;52.100;5.056;2023-04-07T03:10:07;12.55;;;1.05;;
49812;SDS011;35706;52.100;5.056;2023-04-07T03:11:08;15.95;;;1.05;;
49812;SDS011;35706;52.100;5.056;2023-04-07T03:12:08;12.35;;;1.00;;
49812;SDS011;35706;52.100;5.056;2023-04-07T03:13:10;13.70;;;1.23;;
49812;SDS011;35706;52.100;5.056;2023-04-07T03:14:11;12.15;;;1.55;;
49812;SDS011;35706;52.100;5.056;2023-04-07T03:15:12;19.08;;;1.42;;
49812;SDS011;35706;52.100;5.056;2023-04-07T03:16:12;11.05;;;0.95;;
49812;SDS011;35706;52.100;5.056;2023-04-07T03:17:12;16.88;;;0.90;;
49812;SDS011;35706;52.100;5.056;2023-04-07T03:18:12;15.85;;;1.00;;
49812;SDS011;35706;52.100;5.056;2023-04-07T03:19:13;20.15;;;1.50;;
49812;SDS011;35706;52.100;5.056;2023-04-07T03:20:13;9.23;;;0.90;;
49812;SDS011;35706;52.100;5.056;2023-04-07T03:21:14;17.75;;;1.45;;
49812;SDS011;35706;52.100;5.056;2023-04-07T03:22:14;14.32;;;1.20;;
49812;SDS011;35706;52.100;5.056;2023-04-07T03:23:14;15.88;;;0.98;;
49812;SDS011;35706;52.100;5.056;2023-04-07T03:24:15;11.77;;;1.35;;
49812;SDS011;35706;52.100;5.056;2023-04-07T03:25:15;9.13;;;1.42;;
49812;SDS011;35706;52.100;5.056;2023-04-07T03:26:16;21.33;;;1.33;;
49812;SDS011;35706;52.100;5.056;2023-04-07T03:27:16;11.68;;;1.20;;
49812;SDS011;35706;52.100;5.056;2023-04-07T03:28:17;13.70;;;1.30;;
49812;SDS011;35706;52.100;5.056;2023-04-07T03:29:17;16.63;;;1.13;;
49812;SDS011;35706;52.100;5.056;2023-04-07T03:30:18;8.95;;;1.10;;
49812;SDS011;35706;52.100;5.056;2023-04-07T03:31:18;11.80;;;1.58;;
49812;SDS011;35706;52.100;5.056;2023-04-07T03:32:19;12.52;;;1.00;;
49812;SDS011;35706;52.100;5.056;2023-04-07T03:33:19;10.85;;;0.90;;
49812;SDS011;35706;52.100;5.056;2023-04-07T03:34:20;18.98;;;1.50;;
49812;SDS011;35706;52.100;5.056;2023-04-07T03:35:20;13.02;;;0.95;;
49812;SDS011;35706;52.100;5.056;2023-04-07T03:36:21;16.17;;;1.40;;
49812;SDS011;35706;52.100;5.056;2023-04-07T03:37:21;10.57;;;1.02;;
49812;SDS011;35706;52.100;5.056;2023-04-07T03:38:21;13.10;;;1.70;;
49812;SDS011;35706;52.100;5.056;2023-04-07T03:39:22;17.52;;;2.03;;
49812;SDS011;35706;52.100;5.056;2023-04-07T03:40:22;14.20;;;1.00;;
49812;SDS011;35706;52.100;5.056;2023-04-07T03:41:22;8.45;;;1.20;;
49812;SDS011;35706;52.100;5.056;2023-04-07T03:42:23;24.67;;;1.98;;
49812;SDS011;35706;52.100;5.056;2023-04-07T03:43:23;21.88;;;2.85;;
49812;SDS011;35706;52.100;5.056;2023-04-07T03:44:24;12.32;;;1.20;;
49812;SDS011;35706;52.100;5.056;2023-04-07T03:45:24;12.98;;;1.15;;
49812;SDS011;35706;52.100;5.056;2023-04-07T03:46:25;15.30;;;1.80;;
49812;SDS011;35706;52.100;5.056;2023-04-07T03:47:26;13.02;;;1.80;;
49812;SDS011;35706;52.100;5.056;2023-04-07T03:48:26;17.52;;;2.22;;
49812;SDS011;35706;52.100;5.056;2023-04-07T03:49:26;17.38;;;1.52;;
49812;SDS011;35706;52.100;5.056;2023-04-07T03:50:26;18.63;;;1.67;;
49812;SDS011;35706;52.100;5.056;2023-04-07T03:51:27;11.50;;;1.88;;
49812;SDS011;35706;52.100;5.056;2023-04-07T03:52:27;14.07;;;2.15;;
49812;SDS011;35706;52.100;5.056;2023-04-07T03:53:27;17.48;;;2.50;;
49812;SDS011;35706;52.100;5.056;2023-04-07T03:54:28;17.35;;;2.47;;
49812;SDS011;35706;52.100;5.056;2023-04-07T03:55:28;11.73;;;1.50;;
49812;SDS011;35706;52.100;5.056;2023-04-07T03:56:29;16.75;;;2.17;;
49812;SDS011;35706;52.100;5.056;2023-04-07T03:57:30;14.32;;;1.85;;
49812;SDS011;35706;52.100;5.056;2023-04-07T03:58:30;13.35;;;1.73;;
49812;SDS011;35706;52.100;5.056;2023-04-07T03:59:30;13.93;;;2.00;;
49812;SDS011;35706;52.100;5.056;2023-04-07T04:00:31;12.57;;;2.20;;
49812;SDS011;35706;52.100;5.056;2023-04-07T04:01:32;9.68;;;1.48;;
49812;SDS011;35706;52.100;5.056;2023-04-07T04:02:33;13.02;;;2.00;;
49812;SDS011;35706;52.100;5.056;2023-04-07T04:03:33;9.75;;;1.73;;
49812;SDS011;35706;52.100;5.056;2023-04-07T04:04:34;11.57;;;1.92;;
49812;SDS011;35706;52.100;5.056;2023-04-07T04:05:34;11.57;;;1.75;;
49812;SDS011;35706;52.100;5.056;2023-04-07T04:06:35;5.20;;;1.45;;
49812;SDS011;35706;52.100;5.056;2023-04-07T04:07:35;13.13;;;2.22;;
49812;SDS011;35706;52.100;5.056;2023-04-07T04:08:35;14.88;;;2.25;;
49812;SDS011;35706;52.100;5.056;2023-04-07T04:09:36;16.95;;;1.98;;
49812;SDS011;35706;52.100;5.056;2023-04-07T04:10:36;12.30;;;2.47;;
49812;SDS011;35706;52.100;5.056;2023-04-07T04:11:36;11.45;;;1.65;;
49812;SDS011;35706;52.100;5.056;2023-04-07T04:12:37;8.07;;;1.52;;
49812;SDS011;35706;52.100;5.056;2023-04-07T04:13:37;12.00;;;1.90;;
49812;SDS011;35706;52.100;5.056;2023-04-07T04:14:37;9.07;;;1.63;;
49812;SDS011;35706;52.100;5.056;2023-04-07T04:15:38;12.10;;;2.40;;
49812;SDS011;35706;52.100;5.056;2023-04-07T04:16:38;9.57;;;2.42;;
49812;SDS011;35706;52.100;5.056;2023-04-07T04:17:38;10.18;;;2.53;;
49812;SDS011;35706;52.100;5.056;2023-04-07T04:18:39;14.85;;;3.42;;
49812;SDS011;35706;52.100;5.056;2023-04-07T04:19:39;7.38;;;2.85;;
49812;SDS011;35706;52.100;5.056;2023-04-07T04:20:40;10.82;;;3.28;;
49812;SDS011;35706;52.100;5.056;2023-04-07T04:21:40;14.57;;;3.47;;
49812;SDS011;35706;52.100;5.056;2023-04-07T04:22:40;11.05;;;3.40;;
49812;SDS011;35706;52.100;5.056;2023-04-07T04:23:41;16.27;;;3.63;;
49812;SDS011;35706;52.100;5.056;2023-04-07T04:24:41;14.07;;;3.05;;
49812;SDS011;35706;52.100;5.056;2023-04-07T04:25:41;10.25;;;3.78;;
49812;SDS011;35706;52.100;5.056;2023-04-07T04:26:42;10.65;;;3.83;;
49812;SDS011;35706;52.100;5.056;2023-04-07T04:27:42;12.77;;;4.10;;
49812;SDS011;35706;52.100;5.056;2023-04-07T04:28:42;14.20;;;3.50;;
49812;SDS011;35706;52.100;5.056;2023-04-07T04:29:43;15.70;;;4.13;;
49812;SDS011;35706;52.100;5.056;2023-04-07T04:30:43;14.93;;;4.03;;
49812;SDS011;35706;52.100;5.056;2023-04-07T04:31:43;13.77;;;3.60;;
49812;SDS011;35706;52.100;5.056;2023-04-07T04:32:44;7.70;;;2.45;;
49812;SDS011;35706;52.100;5.056;2023-04-07T04:33:44;13.35;;;3.08;;
49812;SDS011;35706;52.100;5.056;2023-04-07T04:34:45;8.48;;;2.58;;
49812;SDS011;35706;52.100;5.056;2023-04-07T04:35:45;12.38;;;1.73;;
49812;SDS011;35706;52.100;5.056;2023-04-07T04:36:46;6.68;;;1.67;;
49812;SDS011;35706;52.100;5.056;2023-04-07T04:37:48;9.98;;;1.70;;
49812;SDS011;35706;52.100;5.056;2023-04-07T04:38:48;10.05;;;1.88;;
49812;SDS011;35706;52.100;5.056;2023-04-07T04:39:48;11.23;;;1.80;;
49812;SDS011;35706;52.100;5.056;2023-04-07T04:40:49;19.02;;;2.85;;
49812;SDS011;35706;52.100;5.056;2023-04-07T04:41:49;11.90;;;2.90;;
49812;SDS011;35706;52.100;5.056;2023-04-07T04:42:50;9.77;;;2.35;;
49812;SDS011;35706;52.100;5.056;2023-04-07T04:43:50;9.25;;;1.75;;
49812;SDS011;35706;52.100;5.056;2023-04-07T04:44:50;8.05;;;1.67;;
49812;SDS011;35706;52.100;5.056;2023-04-07T04:45:51;7.95;;;1.88;;
49812;SDS011;35706;52.100;5.056;2023-04-07T04:46:51;11.52;;;1.83;;
49812;SDS011;35706;52.100;5.056;2023-04-07T04:47:51;8.77;;;1.60;;
49812;SDS011;35706;52.100;5.056;2023-04-07T04:48:52;9.77;;;1.50;;
49812;SDS011;35706;52.100;5.056;2023-04-07T04:49:53;7.45;;;1.48;;
49812;SDS011;35706;52.100;5.056;2023-04-07T04:50:53;8.10;;;1.10;;
49812;SDS011;35706;52.100;5.056;2023-04-07T04:51:53;10.73;;;0.98;;
49812;SDS011;35706;52.100;5.056;2023-04-07T04:52:54;9.32;;;1.25;;
49812;SDS011;35706;52.100;5.056;2023-04-07T04:53:54;6.43;;;1.40;;
49812;SDS011;35706;52.100;5.056;2023-04-07T04:54:55;8.23;;;1.13;;
49812;SDS011;35706;52.100;5.056;2023-04-07T04:55:55;10.07;;;1.63;;
49812;SDS011;35706;52.100;5.056;2023-04-07T04:56:55;4.93;;;1.33;;
49812;SDS011;35706;52.100;5.056;2023-04-07T04:57:56;9.18;;;1.65;;
49812;SDS011;35706;52.100;5.056;2023-04-07T04:58:57;8.45;;;1.70;;
49812;SDS011;35706;52.100;5.056;2023-04-07T04:59:57;11.77;;;1.98;;
49812;SDS011;35706;52.100;5.056;2023-04-07T05:00:57;10.07;;;2.25;;
49812;SDS011;35706;52.100;5.056;2023-04-07T05:01:59;8.85;;;2.47;;
49812;SDS011;35706;52.100;5.056;2023-04-07T05:02:59;12.05;;;2.63;;
49812;SDS011;35706;52.100;5.056;2023-04-07T05:04:00;10.63;;;3.38;;
49812;SDS011;35706;52.100;5.056;2023-04-07T05:05:00;7.97;;;3.03;;
49812;SDS011;35706;52.100;5.056;2023-04-07T05:06:01;8.95;;;1.92;;
49812;SDS011;35706;52.100;5.056;2023-04-07T05:07:01;11.50;;;3.03;;
49812;SDS011;35706;52.100;5.056;2023-04-07T05:08:01;7.47;;;1.98;;
49812;SDS011;35706;52.100;5.056;2023-04-07T05:09:02;7.50;;;1.63;;
49812;SDS011;35706;52.100;5.056;2023-04-07T05:10:02;7.30;;;1.80;;
49812;SDS011;35706;52.100;5.056;2023-04-07T05:11:02;7.43;;;1.50;;
49812;SDS011;35706;52.100;5.056;2023-04-07T05:12:03;8.30;;;1.20;;
49812;SDS011;35706;52.100;5.056;2023-04-07T05:13:04;9.45;;;1.20;;
49812;SDS011;35706;52.100;5.056;2023-04-07T05:14:04;10.23;;;1.05;;
49812;SDS011;35706;52.100;5.056;2023-04-07T05:15:05;9.23;;;1.00;;
49812;SDS011;35706;52.100;5.056;2023-04-07T05:16:06;4.13;;;0.80;;
49812;SDS011;35706;52.100;5.056;2023-04-07T05:17:06;7.18;;;1.20;;
49812;SDS011;35706;52.100;5.056;2023-04-07T05:18:07;7.80;;;1.38;;
49812;SDS011;35706;52.100;5.056;2023-04-07T05:19:07;10.23;;;1.45;;
49812;SDS011;35706;52.100;5.056;2023-04-07T05:20:08;7.82;;;1.30;;
49812;SDS011;35706;52.100;5.056;2023-04-07T05:21:09;9.50;;;1.73;;
49812;SDS011;35706;52.100;5.056;2023-04-07T05:22:09;5.28;;;1.42;;
49812;SDS011;35706;52.100;5.056;2023-04-07T05:23:10;6.72;;;1.10;;
49812;SDS011;35706;52.100;5.056;2023-04-07T05:24:10;9.60;;;1.52;;
49812;SDS011;35706;52.100;5.056;2023-04-07T05:25:11;8.60;;;1.63;;
49812;SDS011;35706;52.100;5.056;2023-04-07T05:26:11;7.07;;;1.35;;
49812;SDS011;35706;52.100;5.056;2023-04-07T05:27:11;10.25;;;1.10;;
49812;SDS011;35706;52.100;5.056;2023-04-07T05:28:12;5.03;;;0.95;;
49812;SDS011;35706;52.100;5.056;2023-04-07T05:29:12;7.25;;;1.27;;
49812;SDS011;35706;52.100;5.056;2023-04-07T05:30:12;6.18;;;1.33;;
49812;SDS011;35706;52.100;5.056;2023-04-07T05:31:13;7.03;;;1.20;;
49812;SDS011;35706;52.100;5.056;2023-04-07T05:32:14;12.30;;;1.20;;
49812;SDS011;35706;52.100;5.056;2023-04-07T05:33:14;10.30;;;0.90;;
49812;SDS011;35706;52.100;5.056;2023-04-07T05:34:14;6.60;;;0.95;;
49812;SDS011;35706;52.100;5.056;2023-04-07T05:35:15;11.10;;;1.10;;
49812;SDS011;35706;52.100;5.056;2023-04-07T05:36:15;8.68;;;1.30;;
49812;SDS011;35706;52.100;5.056;2023-04-07T05:37:15;7.75;;;1.10;;
49812;SDS011;35706;52.100;5.056;2023-04-07T05:38:16;9.57;;;1.83;;
49812;SDS011;35706;52.100;5.056;2023-04-07T05:39:16;7.25;;;1.10;;
49812;SDS011;35706;52.100;5.056;2023-04-07T05:40:16;6.07;;;0.90;;
49812;SDS011;35706;52.100;5.056;2023-04-07T05:41:17;13.40;;;1.13;;
49812;SDS011;35706;52.100;5.056;2023-04-07T05:42:17;7.57;;;1.13;;
49812;SDS011;35706;52.100;5.056;2023-04-07T05:43:17;10.32;;;1.63;;
49812;SDS011;35706;52.100;5.056;2023-04-07T05:44:18;7.38;;;1.13;;
49812;SDS011;35706;52.100;5.056;2023-04-07T05:45:18;7.35;;;1.40;;
49812;SDS011;35706;52.100;5.056;2023-04-07T05:46:18;7.93;;;1.10;;
49812;SDS011;35706;52.100;5.056;2023-04-07T05:47:19;11.20;;;1.00;;
49812;SDS011;35706;52.100;5.056;2023-04-07T05:48:19;4.20;;;0.95;;
49812;SDS011;35706;52.100;5.056;2023-04-07T05:49:20;6.18;;;1.00;;
49812;SDS011;35706;52.100;5.056;2023-04-07T05:50:21;7.30;;;1.10;;
49812;SDS011;35706;52.100;5.056;2023-04-07T05:51:21;6.80;;;0.70;;
49812;SDS011;35706;52.100;5.056;2023-04-07T05:52:21;3.40;;;0.90;;
49812;SDS011;35706;52.100;5.056;2023-04-07T05:53:21;4.68;;;0.88;;
49812;SDS011;35706;52.100;5.056;2023-04-07T05:54:22;5.72;;;0.88;;
49812;SDS011;35706;52.100;5.056;2023-04-07T05:55:22;4.93;;;0.90;;
49812;SDS011;35706;52.100;5.056;2023-04-07T05:56:22;8.70;;;0.70;;
49812;SDS011;35706;52.100;5.056;2023-04-07T05:57:23;8.55;;;0.70;;
49812;SDS011;35706;52.100;5.056;2023-04-07T05:58:23;5.85;;;0.60;;
49812;SDS011;35706;52.100;5.056;2023-04-07T05:59:23;5.78;;;0.70;;
49812;SDS011;35706;52.100;5.056;2023-04-07T06:00:24;6.88;;;0.70;;
49812;SDS011;35706;52.100;5.056;2023-04-07T06:01:24;8.25;;;0.70;;
49812;SDS011;35706;52.100;5.056;2023-04-07T06:02:24;4.28;;;0.70;;
49812;SDS011;35706;52.100;5.056;2023-04-07T06:03:25;2.88;;;0.60;;
49812;SDS011;35706;52.100;5.056;2023-04-07T06:04:25;5.03;;;0.70;;
49812;SDS011;35706;52.100;5.056;2023-04-07T06:05:25;8.35;;;0.60;;
49812;SDS011;35706;52.100;5.056;2023-04-07T06:06:26;6.55;;;0.70;;
49812;SDS011;35706;52.100;5.056;2023-04-07T06:07:26;1.55;;;0.60;;
49812;SDS011;35706;52.100;5.056;2023-04-07T06:08:27;3.47;;;0.60;;
49812;SDS011;35706;52.100;5.056;2023-04-07T06:09:27;9.23;;;0.60;;
49812;SDS011;35706;52.100;5.056;2023-04-07T06:10:27;9.75;;;0.80;;
49812;SDS011;35706;52.100;5.056;2023-04-07T06:11:27;4.97;;;0.60;;
49812;SDS011;35706;52.100;5.056;2023-04-07T06:12:28;3.65;;;0.70;;
49812;SDS011;35706;52.100;5.056;2023-04-07T06:13:28;6.95;;;0.70;;
49812;SDS011;35706;52.100;5.056;2023-04-07T06:14:28;7.25;;;0.73;;